createdAt,value
2019-03-09T00:01:19.931Z,9.77
2019-03-09T00:03:49.237Z,9.73
2019-03-09T00:06:19.484Z,9.76
2019-03-09T00:08:49.417Z,9.74
2019-03-09T00:11:19.368Z,9.70
2019-03-09T00:13:49.683Z,9.70
2019-03-09T00:16:20.167Z,9.63
2019-03-09T00:18:50.563Z,9.74
2019-03-09T00:21:20.042Z,9.54
2019-03-09T00:23:51.527Z,9.64
2019-03-09T00:26:23.657Z,9.62
2019-03-09T00:28:57.055Z,9.69
2019-03-09T00:31:30.862Z,9.59
2019-03-09T00:34:01.546Z,9.47
2019-03-09T00:36:31.323Z,9.62
2019-03-09T00:39:00.809Z,9.58
2019-03-09T00:41:31.567Z,9.70
2019-03-09T00:44:01.074Z,9.37
2019-03-09T00:46:31.349Z,9.42
2019-03-09T00:49:01.112Z,9.52
2019-03-09T00:51:31.282Z,9.41
2019-03-09T00:54:01.839Z,9.62
2019-03-09T00:56:31.545Z,9.63
2019-03-09T00:59:01.174Z,9.64
2019-03-09T01:01:30.862Z,9.71
2019-03-09T01:04:01.074Z,9.51
2019-03-09T01:06:30.899Z,9.61
2019-03-09T01:09:01.322Z,9.64
2019-03-09T01:11:31.451Z,9.55
2019-03-09T01:14:00.970Z,9.68
2019-03-09T01:16:30.527Z,9.40
2019-03-09T01:19:00.167Z,9.55
2019-03-09T01:21:29.457Z,9.61
2019-03-09T01:23:59.675Z,9.66
2019-03-09T01:26:30.199Z,9.71
2019-03-09T01:29:00.768Z,9.65
2019-03-09T01:31:31.161Z,9.51
2019-03-09T01:34:00.673Z,9.61
2019-03-09T01:36:30.792Z,9.60
2019-03-09T01:39:00.919Z,9.52
2019-03-09T01:41:30.760Z,9.56
2019-03-09T01:44:01.484Z,9.71
2019-03-09T01:46:32.110Z,9.71
2019-03-09T01:49:01.956Z,9.62
2019-03-09T01:51:31.930Z,9.60
2019-03-09T01:54:01.926Z,9.57
2019-03-09T01:56:32.009Z,9.57
2019-03-09T01:59:03.659Z,9.51
2019-03-09T02:01:34.505Z,9.41
2019-03-09T02:04:04.148Z,9.54
2019-03-09T02:06:33.872Z,9.52
2019-03-09T02:09:05.211Z,9.49
2019-03-09T02:11:34.619Z,9.52
2019-03-09T02:14:04.423Z,9.52
2019-03-09T02:16:34.366Z,9.63
2019-03-09T02:19:03.906Z,9.66
2019-03-09T02:21:33.922Z,9.64
2019-03-09T02:24:04.003Z,9.63
2019-03-09T02:26:33.939Z,9.74
2019-03-09T02:29:03.878Z,9.74
2019-03-09T02:31:34.116Z,9.81
2019-03-09T02:34:04.360Z,9.72
2019-03-09T02:36:34.502Z,9.71
2019-03-09T02:39:09.101Z,9.53
2019-03-09T02:41:39.002Z,9.67
2019-03-09T02:44:09.539Z,9.75
2019-03-09T02:46:40.866Z,9.63
2019-03-09T02:49:10.797Z,9.64
2019-03-09T02:51:41.069Z,9.55
2019-03-09T02:54:10.757Z,9.54
2019-03-09T02:56:40.995Z,9.57
2019-03-09T02:59:10.899Z,9.61
2019-03-09T03:01:42.587Z,9.73
2019-03-09T03:04:14.085Z,9.66
2019-03-09T03:06:44.223Z,9.66
2019-03-09T03:09:14.113Z,9.72
2019-03-09T03:11:44.410Z,9.72
2019-03-09T03:14:14.275Z,9.76
2019-03-09T03:16:45.921Z,9.66
2019-03-09T03:19:15.959Z,9.63
2019-03-09T03:21:45.629Z,9.71
2019-03-09T03:24:15.333Z,9.70
2019-03-09T03:26:45.173Z,9.67
2019-03-09T03:29:15.101Z,9.75
2019-03-09T03:31:45.003Z,9.70
2019-03-09T03:34:14.506Z,9.70
2019-03-09T03:36:43.874Z,9.70
2019-03-09T03:39:14.505Z,9.65
2019-03-09T03:41:45.687Z,9.62
2019-03-09T03:44:15.078Z,9.64
2019-03-09T03:46:45.273Z,9.57
2019-03-09T03:49:15.132Z,9.56
2019-03-09T03:51:46.636Z,9.61
2019-03-09T03:54:24.124Z,9.48
2019-03-09T03:56:54.065Z,9.45
2019-03-09T03:59:24.079Z,9.53
2019-03-09T04:01:55.586Z,9.52
2019-03-09T04:04:26.866Z,9.22
2019-03-09T04:06:56.784Z,9.15
2019-03-09T04:09:26.587Z,9.21
2019-03-09T04:11:56.607Z,9.29
2019-03-09T04:14:26.583Z,9.26
2019-03-09T04:16:56.458Z,8.98
2019-03-09T04:19:27.355Z,8.93
2019-03-09T04:21:57.694Z,9.12
2019-03-09T04:24:27.406Z,8.74
2019-03-09T04:26:57.237Z,8.93
2019-03-09T04:29:27.546Z,8.85
2019-03-09T04:31:57.683Z,9.02
2019-03-09T04:34:29.694Z,8.97
2019-03-09T04:37:02.247Z,8.96
2019-03-09T04:39:32.695Z,8.74
2019-03-09T04:42:03.076Z,8.75
2019-03-09T04:44:33.388Z,8.88
2019-03-09T04:47:02.881Z,8.94
2019-03-09T04:49:34.369Z,8.70
2019-03-09T04:52:04.716Z,8.74
2019-03-09T04:54:34.809Z,8.74
2019-03-09T04:57:05.183Z,8.69
2019-03-09T04:59:35.825Z,8.81
2019-03-09T05:02:06.004Z,8.77
2019-03-09T05:04:43.960Z,8.76
2019-03-09T05:07:16.386Z,8.81
2019-03-09T05:09:51.880Z,8.66
2019-03-09T05:12:21.615Z,8.63
2019-03-09T05:14:51.507Z,8.60
2019-03-09T05:17:21.728Z,8.80
2019-03-09T05:19:51.175Z,8.51
2019-03-09T05:22:21.393Z,8.73
2019-03-09T05:24:51.404Z,8.65
2019-03-09T05:27:21.681Z,8.80
2019-03-09T05:29:51.582Z,8.76
2019-03-09T05:32:21.421Z,8.79
2019-03-09T05:34:51.925Z,8.67
2019-03-09T05:37:22.254Z,8.71
2019-03-09T05:39:52.343Z,8.82
2019-03-09T05:42:24.264Z,8.63
2019-03-09T05:44:54.655Z,8.55
2019-03-09T05:47:24.729Z,8.70
2019-03-09T05:49:54.669Z,8.67
2019-03-09T05:52:27.376Z,8.61
2019-03-09T05:54:57.601Z,8.59
2019-03-09T05:57:29.402Z,8.52
2019-03-09T05:59:59.059Z,8.66
2019-03-09T06:02:29.452Z,8.63
2019-03-09T06:04:59.083Z,8.77
2019-03-09T06:07:29.168Z,8.82
2019-03-09T06:09:58.961Z,8.92
2019-03-09T06:12:30.019Z,8.97
2019-03-09T06:15:00.256Z,8.88
2019-03-09T06:17:30.825Z,9.00
2019-03-09T06:20:00.564Z,8.67
2019-03-09T06:22:30.634Z,9.03
2019-03-09T06:25:00.769Z,8.84
2019-03-09T06:27:31.330Z,8.94
2019-03-09T06:30:03.163Z,8.92
2019-03-09T06:32:35.486Z,8.85
2019-03-09T06:35:08.467Z,9.01
2019-03-09T06:37:39.227Z,9.10
2019-03-09T06:40:11.727Z,9.07
2019-03-09T06:42:44.260Z,9.05
2019-03-09T06:45:13.996Z,9.25
2019-03-09T06:47:44.458Z,9.20
2019-03-09T06:50:15.791Z,9.09
2019-03-09T06:52:47.655Z,9.23
2019-03-09T06:55:17.776Z,9.32
2019-03-09T06:57:48.059Z,9.17
2019-03-09T07:00:36.833Z,9.44
2019-03-09T07:03:06.919Z,9.43
2019-03-09T07:05:37.333Z,9.32
2019-03-09T07:08:08.830Z,9.38
2019-03-09T07:10:39.158Z,9.51
2019-03-09T07:13:09.090Z,9.38
2019-03-09T07:15:41.762Z,9.48
2019-03-09T07:18:18.015Z,9.40
2019-03-09T07:20:48.700Z,9.36
2019-03-09T07:23:19.342Z,9.40
2019-03-09T07:25:48.776Z,9.50
2019-03-09T07:28:18.332Z,9.43
2019-03-09T07:30:49.585Z,9.30
2019-03-09T07:33:20.766Z,9.54
2019-03-09T07:35:51.078Z,9.44
2019-03-09T07:38:21.223Z,9.36
2019-03-09T07:40:52.865Z,9.42
2019-03-09T07:43:23.054Z,9.15
2019-03-09T07:45:52.882Z,8.94
2019-03-09T07:48:24.456Z,8.98
2019-03-09T07:50:55.421Z,9.17
2019-03-09T07:53:25.481Z,9.20
2019-03-09T07:55:55.837Z,9.44
2019-03-09T07:58:25.559Z,9.25
2019-03-09T08:00:55.180Z,9.02
2019-03-09T08:03:27.037Z,8.99
2019-03-09T08:05:57.867Z,9.17
2019-03-09T08:08:28.300Z,9.41
2019-03-09T08:10:58.355Z,9.42
2019-03-09T08:13:28.412Z,9.75
2019-03-09T08:15:57.927Z,9.97
2019-03-09T08:18:27.338Z,9.75
2019-03-09T08:20:59.551Z,9.91
2019-03-09T08:23:30.065Z,9.93
2019-03-09T08:26:00.203Z,9.76
2019-03-09T08:28:30.223Z,9.99
2019-03-09T08:31:00.296Z,10.10
2019-03-09T08:33:30.978Z,9.95
2019-03-09T08:36:02.476Z,10.20
2019-03-09T08:38:33.237Z,9.81
2019-03-09T08:41:03.783Z,9.85
2019-03-09T08:43:33.128Z,10.09
2019-03-09T08:46:02.629Z,9.94
2019-03-09T08:48:32.892Z,9.94
2019-03-09T08:51:03.765Z,9.80
2019-03-09T08:53:34.039Z,10.67
2019-03-09T08:56:04.073Z,10.26
2019-03-09T08:58:34.264Z,10.10
2019-03-09T09:01:03.670Z,10.25
2019-03-09T09:03:33.344Z,10.38
2019-03-09T09:06:03.418Z,10.35
2019-03-09T09:08:35.444Z,10.27
2019-03-09T09:11:05.734Z,10.15
2019-03-09T09:13:35.968Z,10.28
2019-03-09T09:16:05.936Z,10.12
2019-03-09T09:18:36.136Z,10.33
2019-03-09T09:21:06.493Z,10.22
2019-03-09T09:23:38.290Z,10.29
2019-03-09T09:26:07.948Z,10.43
2019-03-09T09:28:38.359Z,10.37
2019-03-09T09:31:07.986Z,10.52
2019-03-09T09:33:37.549Z,10.35
2019-03-09T09:36:07.084Z,10.48
2019-03-09T09:38:36.585Z,10.36
2019-03-09T09:41:08.643Z,10.33
2019-03-09T09:43:40.503Z,10.52
2019-03-09T09:46:10.002Z,10.49
2019-03-09T09:48:39.514Z,10.48
2019-03-09T09:51:09.041Z,10.49
2019-03-09T09:53:38.714Z,10.42
2019-03-09T09:56:10.637Z,10.57
2019-03-09T09:58:41.195Z,10.52
2019-03-09T10:01:11.650Z,10.58
2019-03-09T10:03:41.236Z,10.39
2019-03-09T10:06:10.649Z,10.42
2019-03-09T10:08:40.249Z,10.49
2019-03-09T10:11:12.407Z,10.49
2019-03-09T10:13:42.835Z,10.54
2019-03-09T10:16:12.274Z,10.52
2019-03-09T10:18:41.782Z,10.53
2019-03-09T10:21:11.304Z,10.47
2019-03-09T10:23:41.872Z,10.61
2019-03-09T10:26:11.409Z,10.77
2019-03-09T10:28:42.156Z,10.83
2019-03-09T10:31:12.952Z,10.86
2019-03-09T10:33:43.378Z,10.81
2019-03-09T10:36:13.229Z,10.81
2019-03-09T10:38:43.652Z,10.85
2019-03-09T10:41:13.227Z,10.82
2019-03-09T10:43:45.057Z,11.06
2019-03-09T10:46:15.952Z,10.85
2019-03-09T10:48:46.571Z,10.96
2019-03-09T10:51:15.976Z,11.02
2019-03-09T10:53:45.591Z,11.18
2019-03-09T10:56:15.302Z,10.80
2019-03-09T10:58:45.732Z,11.08
2019-03-09T11:01:17.767Z,11.28
2019-03-09T11:03:48.341Z,11.25
2019-03-09T11:06:17.904Z,11.19
2019-03-09T11:08:48.568Z,11.23
2019-03-09T11:11:19.064Z,11.22
2019-03-09T11:13:52.348Z,11.35
2019-03-09T11:16:21.958Z,11.32
2019-03-09T11:18:52.606Z,11.35
2019-03-09T11:21:23.123Z,11.42
2019-03-09T11:23:52.690Z,11.42
2019-03-09T11:26:22.236Z,11.42
2019-03-09T11:28:54.324Z,11.66
2019-03-09T11:31:24.864Z,11.81
2019-03-09T11:33:54.560Z,11.85
2019-03-09T11:36:26.238Z,11.91
2019-03-09T11:38:55.748Z,12.20
2019-03-09T11:41:26.434Z,12.36
2019-03-09T11:43:57.394Z,12.14
2019-03-09T11:46:28.293Z,12.15
2019-03-09T11:48:58.712Z,12.10
2019-03-09T11:51:29.266Z,11.97
2019-03-09T11:53:58.830Z,11.87
2019-03-09T11:56:29.457Z,11.84
2019-03-09T11:59:00.457Z,11.79
2019-03-09T12:01:31.144Z,11.64
2019-03-09T12:04:01.862Z,11.68
2019-03-09T12:06:32.161Z,11.64
2019-03-09T12:09:01.888Z,11.65
2019-03-09T12:11:32.382Z,11.62
2019-03-09T12:14:03.424Z,11.65
2019-03-09T12:16:34.196Z,11.53
2019-03-09T12:19:03.764Z,11.48
2019-03-09T12:21:34.027Z,11.36
2019-03-09T12:24:03.910Z,11.39
2019-03-09T12:26:33.896Z,11.40
2019-03-09T12:29:03.778Z,11.31
2019-03-09T12:31:37.168Z,11.28
2019-03-09T12:34:07.504Z,11.27
2019-03-09T12:36:37.673Z,11.37
2019-03-09T12:39:10.210Z,11.34
2019-03-09T12:41:42.092Z,11.52
2019-03-09T12:44:13.072Z,11.52
2019-03-09T12:46:43.561Z,11.44
2019-03-09T12:49:13.518Z,11.56
2019-03-09T12:51:43.902Z,11.58
2019-03-09T12:54:13.404Z,11.50
2019-03-09T12:56:43.506Z,11.75
2019-03-09T12:59:13.865Z,12.05
2019-03-09T13:01:44.096Z,11.82
2019-03-09T13:04:14.443Z,11.59
2019-03-09T13:06:44.815Z,11.57
2019-03-09T13:09:14.701Z,11.49
2019-03-09T13:11:45.187Z,11.42
2019-03-09T13:14:16.042Z,11.56
2019-03-09T13:16:45.969Z,11.76
2019-03-09T13:19:15.550Z,11.81
2019-03-09T13:21:46.097Z,11.83
2019-03-09T13:24:19.354Z,11.79
2019-03-09T13:26:51.579Z,11.88
2019-03-09T13:29:22.021Z,11.78
2019-03-09T13:31:51.827Z,11.85
2019-03-09T13:34:22.181Z,11.89
2019-03-09T13:36:52.725Z,11.75
2019-03-09T13:39:22.286Z,11.59
2019-03-09T13:41:54.140Z,11.53
2019-03-09T13:44:25.035Z,11.55
2019-03-09T13:46:55.548Z,11.61
2019-03-09T13:49:24.988Z,11.63
2019-03-09T13:51:54.566Z,12.04
2019-03-09T13:54:24.162Z,11.83
2019-03-09T13:56:54.872Z,11.58
2019-03-09T13:59:24.882Z,11.72
2019-03-09T14:01:55.391Z,11.83
2019-03-09T14:04:25.506Z,11.95
2019-03-09T14:06:55.542Z,12.08
2019-03-09T14:09:25.781Z,12.65
2019-03-09T14:11:55.851Z,12.28
2019-03-09T14:14:26.733Z,12.15
2019-03-09T14:16:58.392Z,12.24
2019-03-09T14:19:28.938Z,11.93
2019-03-09T14:21:58.479Z,11.96
2019-03-09T14:24:29.018Z,11.87
2019-03-09T14:26:58.614Z,11.86
2019-03-09T14:29:30.520Z,11.83
2019-03-09T14:32:01.311Z,11.67
2019-03-09T14:34:31.073Z,11.81
2019-03-09T14:37:01.731Z,11.92
2019-03-09T14:39:31.942Z,11.93
2019-03-09T14:42:02.727Z,11.82
2019-03-09T14:44:34.064Z,11.88
2019-03-09T14:47:04.206Z,11.82
2019-03-09T14:49:34.153Z,11.90
2019-03-09T14:52:04.546Z,11.88
2019-03-09T14:54:35.142Z,11.89
2019-03-09T14:57:04.932Z,11.81
2019-03-09T14:59:35.731Z,11.75
2019-03-09T15:02:07.215Z,11.67
2019-03-09T15:04:37.699Z,11.64
2019-03-09T15:07:09.571Z,11.85
2019-03-09T15:09:39.613Z,11.99
2019-03-09T15:12:11.817Z,11.96
2019-03-09T15:14:43.538Z,11.88
2019-03-09T15:17:13.665Z,12.33
2019-03-09T15:19:43.450Z,12.34
2019-03-09T15:22:13.957Z,12.48
2019-03-09T15:24:43.978Z,12.24
2019-03-09T15:27:14.691Z,12.40
2019-03-09T15:29:46.128Z,12.40
2019-03-09T15:32:16.162Z,12.30
2019-03-09T15:34:46.305Z,12.11
2019-03-09T15:37:16.175Z,12.14
2019-03-09T15:39:45.755Z,12.06
2019-03-09T15:42:18.624Z,12.17
2019-03-09T15:44:49.042Z,12.07
2019-03-09T15:47:18.570Z,12.12
2019-03-09T15:49:48.381Z,12.26
2019-03-09T15:52:18.910Z,12.27
2019-03-09T15:54:49.481Z,12.00
2019-03-09T15:57:19.492Z,12.03
2019-03-09T15:59:51.011Z,12.04
2019-03-09T16:02:20.564Z,12.03
2019-03-09T16:04:51.205Z,12.01
2019-03-09T16:07:21.802Z,12.04
2019-03-09T16:09:52.029Z,12.06
2019-03-09T16:12:23.686Z,12.08
2019-03-09T16:14:55.222Z,12.08
2019-03-09T16:17:25.832Z,12.10
2019-03-09T16:19:55.553Z,12.09
2019-03-09T16:22:25.310Z,12.09
2019-03-09T16:24:55.774Z,12.09
2019-03-09T16:27:27.707Z,12.06
2019-03-09T16:29:58.784Z,12.03
2019-03-09T16:32:28.837Z,12.05
2019-03-09T16:34:59.232Z,12.05
2019-03-09T16:37:29.233Z,12.12
2019-03-09T16:39:58.808Z,12.05
2019-03-09T16:42:30.610Z,12.01
2019-03-09T16:45:00.993Z,12.03
2019-03-09T16:47:31.163Z,12.06
2019-03-09T16:50:01.192Z,11.93
2019-03-09T16:52:30.789Z,12.01
2019-03-09T16:55:01.394Z,11.97
2019-03-09T16:57:30.950Z,11.98
2019-03-09T17:00:02.969Z,11.94
2019-03-09T17:02:32.723Z,11.87
2019-03-09T17:05:03.198Z,11.81
2019-03-09T17:07:33.758Z,11.79
2019-03-09T17:10:03.386Z,11.80
2019-03-09T17:12:34.080Z,11.72
2019-03-09T17:15:05.963Z,11.76
2019-03-09T17:17:36.308Z,11.69
2019-03-09T17:20:07.533Z,11.72
2019-03-09T17:22:38.222Z,11.63
2019-03-09T17:25:09.221Z,11.59
2019-03-09T17:27:40.972Z,11.58
2019-03-09T17:30:16.117Z,11.60
2019-03-09T17:32:46.157Z,11.53
2019-03-09T17:35:16.318Z,11.45
2019-03-09T17:37:48.173Z,11.40
2019-03-09T17:40:18.447Z,11.47
2019-03-09T17:42:48.549Z,11.44
2019-03-09T17:45:25.629Z,11.47
2019-03-09T17:47:57.184Z,11.48
2019-03-09T17:50:28.169Z,11.42
2019-03-09T17:52:57.841Z,11.40
2019-03-09T17:55:28.055Z,11.39
2019-03-09T17:57:57.799Z,11.34
2019-03-09T18:00:42.151Z,11.31
2019-03-09T18:03:05.555Z,11.33
2019-03-09T18:05:35.918Z,11.29
2019-03-09T18:08:11.284Z,11.25
2019-03-09T18:10:47.485Z,11.29
2019-03-09T18:13:18.043Z,11.27
2019-03-09T18:15:48.659Z,11.26
2019-03-09T18:18:18.573Z,11.24
2019-03-09T18:20:48.381Z,11.16
2019-03-09T18:23:18.930Z,11.18
2019-03-09T18:25:49.410Z,11.16
2019-03-09T18:28:19.963Z,11.16
2019-03-09T18:30:50.092Z,11.09
2019-03-09T18:33:20.015Z,11.05
2019-03-09T18:35:49.427Z,11.06
2019-03-09T18:38:21.768Z,11.12
2019-03-09T18:40:52.208Z,11.06
2019-03-09T18:43:21.936Z,11.14
2019-03-09T18:45:52.544Z,11.17
2019-03-09T18:48:22.150Z,11.16
2019-03-09T18:50:52.796Z,11.16
2019-03-09T18:53:24.614Z,11.11
2019-03-09T18:55:59.229Z,11.17
2019-03-09T18:58:26.420Z,11.19
2019-03-09T19:00:56.559Z,11.21
2019-03-09T19:03:26.506Z,11.24
2019-03-09T19:05:57.368Z,11.18
2019-03-09T19:08:28.043Z,11.22
2019-03-09T19:11:03.208Z,11.23
2019-03-09T19:13:32.871Z,11.23
2019-03-09T19:16:03.424Z,11.22
2019-03-09T19:18:33.539Z,11.19
2019-03-09T19:21:05.395Z,11.19
2019-03-09T19:23:35.798Z,11.18
2019-03-09T19:26:06.258Z,11.16
2019-03-09T19:28:36.357Z,11.19
2019-03-09T19:31:05.907Z,11.21
2019-03-09T19:33:36.080Z,11.20
2019-03-09T19:36:08.040Z,11.20
2019-03-09T19:38:37.644Z,11.28
2019-03-09T19:41:07.062Z,11.23
2019-03-09T19:43:37.820Z,11.29
2019-03-09T19:46:08.386Z,11.26
2019-03-09T19:48:38.120Z,11.24
2019-03-09T19:51:10.372Z,11.27
2019-03-09T19:53:42.737Z,11.29
2019-03-09T19:56:12.757Z,11.32
2019-03-09T19:58:43.054Z,11.30
2019-03-09T20:01:12.922Z,11.36
2019-03-09T20:03:45.193Z,11.32
2019-03-09T20:06:15.620Z,11.33
2019-03-09T20:08:45.824Z,11.25
2019-03-09T20:11:15.936Z,11.22
2019-03-09T20:13:45.850Z,11.22
2019-03-09T20:16:16.438Z,11.27
2019-03-09T20:18:47.001Z,11.28
2019-03-09T20:21:18.905Z,11.28
2019-03-09T20:23:48.670Z,11.23
2019-03-09T20:26:18.530Z,11.27
2019-03-09T20:28:49.230Z,11.27
2019-03-09T20:31:19.582Z,11.23
2019-03-09T20:33:53.130Z,11.25
2019-03-09T20:36:22.895Z,11.26
2019-03-09T20:38:52.800Z,11.27
2019-03-09T20:41:22.848Z,11.31
2019-03-09T20:43:53.548Z,11.28
2019-03-09T20:46:23.792Z,11.27
2019-03-09T20:48:55.664Z,11.27
2019-03-09T20:51:26.233Z,11.23
2019-03-09T20:53:56.687Z,11.31
2019-03-09T20:56:26.497Z,11.25
2019-03-09T20:58:56.239Z,11.29
2019-03-09T21:01:26.783Z,11.21
2019-03-09T21:04:00.887Z,11.26
2019-03-09T21:06:30.460Z,11.25
2019-03-09T21:09:00.286Z,11.23
2019-03-09T21:11:30.959Z,11.26
2019-03-09T21:14:00.763Z,11.25
2019-03-09T21:16:31.208Z,11.21
2019-03-09T21:19:02.645Z,11.23
2019-03-09T21:21:33.144Z,11.27
2019-03-09T21:24:09.288Z,11.35
2019-03-09T21:26:39.672Z,11.26
2019-03-09T21:29:11.985Z,11.27
2019-03-09T21:31:42.598Z,11.34
2019-03-09T21:34:12.934Z,11.38
2019-03-09T21:36:43.328Z,11.37
2019-03-09T21:39:13.480Z,11.35
2019-03-09T21:41:44.030Z,11.36
2019-03-09T21:44:14.774Z,11.28
2019-03-09T21:46:45.638Z,11.26
2019-03-09T21:49:15.256Z,11.28
2019-03-09T21:51:45.916Z,11.32
2019-03-09T21:54:16.238Z,11.37
2019-03-09T21:56:46.130Z,11.43
2019-03-09T21:59:18.074Z,11.42
2019-03-09T22:01:48.256Z,11.42
2019-03-09T22:04:17.952Z,11.41
2019-03-09T22:06:48.389Z,11.40
2019-03-09T22:09:19.065Z,11.37
2019-03-09T22:11:51.129Z,11.36
2019-03-09T22:14:21.707Z,11.30
2019-03-09T22:16:56.468Z,11.33
2019-03-09T22:19:24.177Z,11.18
2019-03-09T22:22:00.629Z,11.22
2019-03-09T22:24:30.914Z,11.31
2019-03-09T22:27:00.840Z,11.35
2019-03-09T22:29:31.708Z,11.34
2019-03-09T22:32:01.804Z,11.36
2019-03-09T22:34:31.856Z,11.28
2019-03-09T22:37:01.778Z,11.40
2019-03-09T22:39:33.562Z,11.41
2019-03-09T22:42:04.374Z,11.51
2019-03-09T22:44:34.876Z,11.32
2019-03-09T22:47:11.709Z,11.33
2019-03-09T22:49:38.362Z,11.40
2019-03-09T22:52:09.835Z,11.37
2019-03-09T22:54:40.473Z,11.37
2019-03-09T22:57:10.716Z,11.36
2019-03-09T22:59:40.673Z,11.37
2019-03-09T23:02:12.779Z,11.44
2019-03-09T23:04:42.894Z,11.49
2019-03-09T23:07:15.124Z,11.42
2019-03-09T23:09:45.601Z,11.39
2019-03-09T23:12:15.385Z,11.35
2019-03-09T23:14:45.632Z,11.42
2019-03-09T23:17:15.934Z,11.44
2019-03-09T23:19:48.524Z,11.46
2019-03-09T23:22:19.351Z,11.49
2019-03-09T23:24:50.009Z,11.51
2019-03-09T23:27:20.133Z,11.55
2019-03-09T23:29:50.956Z,11.55
2019-03-09T23:32:20.892Z,11.48
2019-03-09T23:34:52.623Z,11.43
2019-03-09T23:37:22.949Z,11.47
2019-03-09T23:39:53.117Z,11.44
2019-03-09T23:42:23.588Z,11.51
2019-03-09T23:44:53.594Z,11.53
2019-03-09T23:47:24.443Z,11.38
2019-03-09T23:49:55.090Z,11.41
2019-03-09T23:52:25.114Z,11.47
2019-03-09T23:54:55.015Z,11.50
2019-03-09T23:57:25.064Z,11.54
2019-03-09T23:59:54.963Z,11.57
